createdAt,value
2023-03-22T00:00:29.268Z,2.17
2023-03-22T00:03:31.889Z,1.96
2023-03-22T00:06:34.444Z,1.92
2023-03-22T00:09:36.918Z,1.67
2023-03-22T00:12:39.356Z,1.47
2023-03-22T00:15:44.911Z,1.33
2023-03-22T00:18:47.513Z,1.89
2023-03-22T00:21:51.552Z,2.10
2023-03-22T00:24:54.092Z,1.80
2023-03-22T00:27:56.650Z,1.78
2023-03-22T00:31:01.562Z,1.80
2023-03-22T00:34:04.190Z,1.60
2023-03-22T00:37:08.202Z,1.43
2023-03-22T00:40:15.105Z,1.31
2023-03-22T00:43:18.321Z,2.02
2023-03-22T00:46:21.723Z,1.91
2023-03-22T00:49:25.639Z,2.01
2023-03-22T00:52:31.585Z,2.27
2023-03-22T00:55:34.912Z,2.06
2023-03-22T00:58:38.168Z,2.21
2023-03-22T01:01:41.020Z,1.95
2023-03-22T01:04:46.424Z,3.09
2023-03-22T01:07:55.128Z,2.93
2023-03-22T01:10:57.632Z,2.79
2023-03-22T01:14:00.173Z,2.64
2023-03-22T01:17:02.818Z,2.59
2023-03-22T01:20:06.917Z,2.68
2023-03-22T01:23:09.487Z,2.72
2023-03-22T01:26:11.981Z,2.52
2023-03-22T01:29:16.860Z,2.70
2023-03-22T01:32:19.372Z,2.71
2023-03-22T01:35:22.310Z,2.78
2023-03-22T01:38:25.305Z,2.72
2023-03-22T01:41:37.535Z,2.63
2023-03-22T01:45:16.841Z,2.30
2023-03-22T01:48:46.322Z,1.97
2023-03-22T01:52:14.406Z,1.98
2023-03-22T01:55:33.738Z,2.02
2023-03-22T01:58:46.612Z,1.95
2023-03-22T02:01:52.037Z,1.90
2023-03-22T02:04:58.286Z,1.96
2023-03-22T02:08:04.909Z,2.30
2023-03-22T02:11:41.721Z,2.53
2023-03-22T02:15:24.950Z,2.39
2023-03-22T02:19:42.637Z,2.40
2023-03-22T02:23:08.141Z,2.35
2023-03-22T02:26:13.149Z,2.46
2023-03-22T02:29:45.098Z,2.55
2023-03-22T02:33:06.213Z,2.53
2023-03-22T02:36:34.809Z,2.58
2023-03-22T02:39:59.124Z,2.79
2023-03-22T02:43:15.098Z,2.67
2023-03-22T02:46:47.037Z,2.65
2023-03-22T02:50:03.858Z,2.64
2023-03-22T02:53:41.362Z,2.74
2023-03-22T02:56:48.295Z,2.96
2023-03-22T02:59:52.493Z,3.22
2023-03-22T03:03:02.135Z,3.37
2023-03-22T03:06:15.052Z,3.38
2023-03-22T03:09:19.986Z,3.57
2023-03-22T03:12:25.348Z,3.74
2023-03-22T03:15:29.984Z,3.96
2023-03-22T03:18:45.418Z,3.63
2023-03-22T03:21:54.538Z,3.50
2023-03-22T03:25:04.948Z,3.38
2023-03-22T03:28:30.306Z,3.44
2023-03-22T03:31:45.641Z,3.56
2023-03-22T03:34:57.337Z,3.93
2023-03-22T03:38:12.032Z,3.97
2023-03-22T03:41:17.783Z,4.05
2023-03-22T03:44:20.511Z,4.15
2023-03-22T03:47:23.465Z,4.33
2023-03-22T03:50:27.184Z,4.27
2023-03-22T03:53:31.625Z,4.20
2023-03-22T03:56:34.268Z,4.25
2023-03-22T03:59:36.798Z,4.36
2023-03-22T04:02:47.316Z,4.55
2023-03-22T04:06:12.771Z,4.56
2023-03-22T04:09:20.200Z,4.60
2023-03-22T04:12:27.551Z,4.88
2023-03-22T04:15:58.188Z,4.84
2023-03-22T04:19:01.190Z,4.82
2023-03-22T04:22:03.896Z,4.85
2023-03-22T04:25:12.105Z,4.96
2023-03-22T04:28:20.456Z,4.99
2023-03-22T04:31:25.160Z,5.01
2023-03-22T04:34:34.242Z,4.93
2023-03-22T04:37:39.296Z,5.07
2023-03-22T04:40:48.780Z,5.23
2023-03-22T04:43:57.769Z,5.14
2023-03-22T04:47:00.585Z,5.02
2023-03-22T04:50:04.048Z,4.97
2023-03-22T04:53:12.485Z,5.16
2023-03-22T04:56:16.155Z,5.11
2023-03-22T04:59:20.647Z,5.40
2023-03-22T05:02:24.794Z,5.44
2023-03-22T05:05:28.058Z,5.30
2023-03-22T05:08:31.264Z,5.24
2023-03-22T05:11:34.081Z,5.19
2023-03-22T05:14:52.035Z,5.61
2023-03-22T05:17:59.492Z,5.85
2023-03-22T05:21:04.040Z,5.95
2023-03-22T05:24:08.958Z,6.12
2023-03-22T05:27:14.280Z,6.32
2023-03-22T05:30:17.909Z,6.21
2023-03-22T05:33:46.778Z,6.28
2023-03-22T05:36:52.215Z,6.47
2023-03-22T05:40:01.524Z,6.62
2023-03-22T05:43:12.106Z,6.57
2023-03-22T05:46:19.212Z,6.69
2023-03-22T05:49:41.060Z,6.76
2023-03-22T05:52:45.870Z,6.87
2023-03-22T05:56:04.320Z,7.04
2023-03-22T05:59:09.195Z,7.12
2023-03-22T06:02:11.874Z,7.02
2023-03-22T06:05:16.632Z,7.16
2023-03-22T06:08:19.503Z,7.21
2023-03-22T06:11:22.956Z,7.43
2023-03-22T06:14:26.664Z,7.44
2023-03-22T06:17:52.555Z,7.50
2023-03-22T06:20:59.646Z,7.58
2023-03-22T06:24:02.334Z,7.67
2023-03-22T06:27:05.623Z,7.72
2023-03-22T06:30:08.947Z,7.95
2023-03-22T06:33:25.013Z,7.98
2023-03-22T06:36:34.433Z,8.03
2023-03-22T06:39:55.629Z,8.00
2023-03-22T06:43:04.483Z,8.39
2023-03-22T06:46:09.911Z,8.58
2023-03-22T06:49:21.939Z,8.49
2023-03-22T06:52:27.179Z,8.55
2023-03-22T06:55:34.658Z,8.77
2023-03-22T06:58:46.406Z,8.74
2023-03-22T07:01:49.031Z,8.94
2023-03-22T07:04:52.386Z,9.14
2023-03-22T07:07:54.961Z,9.28
2023-03-22T07:10:58.024Z,9.27
2023-03-22T07:14:01.642Z,9.42
2023-03-22T07:17:27.063Z,9.46
2023-03-22T07:20:29.782Z,9.51
2023-03-22T07:23:33.252Z,9.61
2023-03-22T07:26:42.205Z,9.54
2023-03-22T07:29:49.315Z,9.72
2023-03-22T07:32:52.573Z,9.72
2023-03-22T07:35:55.414Z,9.89
2023-03-22T07:38:58.540Z,9.87
2023-03-22T07:42:05.616Z,9.90
2023-03-22T07:45:28.713Z,10.04
2023-03-22T07:48:50.195Z,10.12
2023-03-22T07:52:11.230Z,10.28
2023-03-22T07:55:14.894Z,10.46
2023-03-22T07:58:18.060Z,10.52
2023-03-22T08:01:21.668Z,10.83
2023-03-22T08:04:44.529Z,10.90
2023-03-22T08:08:16.669Z,11.29
2023-03-22T08:11:21.401Z,11.46
2023-03-22T08:14:35.456Z,11.54
2023-03-22T08:17:40.360Z,11.62
2023-03-22T08:20:59.654Z,11.69
2023-03-22T08:24:05.547Z,12.13
2023-03-22T08:27:26.389Z,12.11
2023-03-22T08:30:29.802Z,12.44
2023-03-22T08:33:33.531Z,12.44
2023-03-22T08:36:37.511Z,12.67
2023-03-22T08:39:40.639Z,12.51
2023-03-22T08:42:55.936Z,12.78
2023-03-22T08:45:58.754Z,12.80
2023-03-22T08:49:02.712Z,12.98
2023-03-22T08:52:11.642Z,13.07
2023-03-22T08:55:38.049Z,13.08
2023-03-22T08:58:47.183Z,13.13
2023-03-22T09:02:10.428Z,13.00
2023-03-22T09:05:14.408Z,13.11
2023-03-22T09:08:19.821Z,13.18
2023-03-22T09:11:27.794Z,13.40
2023-03-22T09:14:30.593Z,13.43
2023-03-22T09:17:34.177Z,13.44
2023-03-22T09:20:38.772Z,13.54
2023-03-22T09:23:47.770Z,13.63
2023-03-22T09:26:52.989Z,13.65
2023-03-22T09:29:55.813Z,13.76
2023-03-22T09:33:02.731Z,13.68
2023-03-22T09:36:06.817Z,13.57
2023-03-22T09:39:10.370Z,13.60
2023-03-22T09:42:41.035Z,13.50
2023-03-22T09:45:50.354Z,13.74
2023-03-22T09:48:53.796Z,13.70
2023-03-22T09:51:56.595Z,13.64
2023-03-22T09:54:59.319Z,13.85
2023-03-22T09:58:26.332Z,13.87
2023-03-22T10:01:57.274Z,14.12
2023-03-22T10:05:22.586Z,14.21
2023-03-22T10:08:30.565Z,14.38
2023-03-22T10:11:40.251Z,14.25
2023-03-22T10:15:08.080Z,14.42
2023-03-22T10:18:24.949Z,14.57
2023-03-22T10:21:27.620Z,14.96
2023-03-22T10:24:33.043Z,15.37
2023-03-22T10:27:36.422Z,15.65
2023-03-22T10:30:41.066Z,15.86
2023-03-22T10:33:53.528Z,16.18
2023-03-22T10:36:56.456Z,16.37
2023-03-22T10:40:01.249Z,16.56
2023-03-22T10:43:26.309Z,16.63
2023-03-22T10:46:34.746Z,16.85
2023-03-22T10:49:42.751Z,16.36
2023-03-22T10:53:03.368Z,16.68
2023-03-22T10:56:11.836Z,16.76
2023-03-22T10:59:56.284Z,17.12
2023-03-22T11:03:00.795Z,16.89
2023-03-22T11:06:17.451Z,17.85
2023-03-22T11:09:21.764Z,18.27
2023-03-22T11:12:24.731Z,18.00
2023-03-22T11:15:32.850Z,18.41
2023-03-22T11:18:35.771Z,18.22
2023-03-22T11:21:38.342Z,18.28
2023-03-22T11:24:41.008Z,18.56
2023-03-22T11:28:05.571Z,18.59
2023-03-22T11:31:14.778Z,18.47
2023-03-22T11:34:22.131Z,18.76
2023-03-22T11:37:28.131Z,18.44
2023-03-22T11:40:33.536Z,18.41
2023-03-22T11:43:48.579Z,18.25
2023-03-22T11:46:54.576Z,18.40
2023-03-22T11:50:04.319Z,18.45
2023-03-22T11:53:25.668Z,18.43
2023-03-22T11:56:33.387Z,18.28
2023-03-22T12:00:04.952Z,18.68
2023-03-22T12:03:15.080Z,18.78
2023-03-22T12:06:28.237Z,19.01
2023-03-22T12:09:51.751Z,19.03
2023-03-22T12:13:18.929Z,18.91
2023-03-22T12:16:28.603Z,18.88
2023-03-22T12:19:57.287Z,19.32
2023-03-22T12:23:00.714Z,19.21
2023-03-22T12:26:12.521Z,18.93
2023-03-22T12:29:19.377Z,19.30
2023-03-22T12:32:28.602Z,19.72
2023-03-22T12:35:35.185Z,20.06
2023-03-22T12:38:46.342Z,20.42
2023-03-22T12:41:50.964Z,20.26
2023-03-22T12:45:05.050Z,20.64
2023-03-22T12:48:21.011Z,20.64
2023-03-22T12:51:23.884Z,20.52
2023-03-22T12:54:26.910Z,20.31
2023-03-22T12:57:29.674Z,20.57
2023-03-22T13:00:44.451Z,20.85
2023-03-22T13:03:52.356Z,20.91
2023-03-22T13:06:57.676Z,20.76
2023-03-22T13:10:01.838Z,20.60
2023-03-22T13:13:22.368Z,21.12
2023-03-22T13:16:42.744Z,21.15
2023-03-22T13:20:08.056Z,21.18
2023-03-22T13:23:25.031Z,21.04
2023-03-22T13:26:54.985Z,21.18
2023-03-22T13:29:58.869Z,21.19
2023-03-22T13:33:23.811Z,21.04
2023-03-22T13:36:33.030Z,20.81
2023-03-22T13:39:39.558Z,20.97
2023-03-22T13:42:42.376Z,21.03
2023-03-22T13:46:08.236Z,20.18
2023-03-22T13:49:38.663Z,19.80
2023-03-22T13:52:53.366Z,19.76
2023-03-22T13:55:55.923Z,19.83
2023-03-22T13:58:58.814Z,20.25
2023-03-22T14:02:05.074Z,20.41
2023-03-22T14:05:13.724Z,20.27
2023-03-22T14:08:24.086Z,20.28
2023-03-22T14:11:49.729Z,20.91
2023-03-22T14:15:07.252Z,22.14
2023-03-22T14:18:35.294Z,23.63
2023-03-22T14:21:41.999Z,25.13
